createdAt,value
2023-04-04T00:00:54.454Z,4.87
2023-04-04T00:03:25.526Z,4.17
2023-04-04T00:05:53.754Z,4.57
2023-04-04T00:08:31.603Z,3.43
2023-04-04T00:11:00.358Z,4.93
2023-04-04T00:13:30.676Z,4.60
2023-04-04T00:15:59.135Z,4.65
2023-04-04T00:18:26.020Z,3.70
2023-04-04T00:20:52.870Z,3.28
2023-04-04T00:23:19.759Z,5.80
2023-04-04T00:25:50.133Z,9.47
2023-04-04T00:28:16.984Z,6.50
2023-04-04T00:30:43.900Z,5.17
2023-04-04T00:33:14.475Z,4.17
2023-04-04T00:35:41.951Z,3.47
2023-04-04T00:38:08.833Z,3.30
2023-04-04T00:40:53.097Z,3.43
2023-04-04T00:43:24.135Z,5.90
2023-04-04T00:45:52.941Z,5.33
2023-04-04T00:48:21.042Z,5.70
2023-04-04T00:53:14.509Z,5.37
2023-04-04T00:55:43.902Z,4.43
2023-04-04T00:58:12.124Z,1.97
2023-04-04T01:00:40.200Z,6.53
2023-04-04T01:03:13.938Z,4.87
2023-04-04T01:05:47.563Z,8.53
2023-04-04T01:08:26.735Z,3.03
2023-04-04T01:10:53.506Z,4.77
2023-04-04T01:13:21.486Z,5.07
2023-04-04T01:18:17.491Z,4.88
2023-04-04T01:20:50.284Z,3.03
2023-04-04T01:23:18.208Z,6.00
2023-04-04T01:28:15.423Z,3.77
2023-04-04T01:30:44.265Z,7.07
2023-04-04T01:33:19.510Z,3.37
2023-04-04T01:35:55.030Z,3.73
2023-04-04T01:38:33.888Z,5.13
2023-04-04T01:41:04.098Z,4.50
2023-04-04T01:43:31.762Z,3.90
2023-04-04T01:46:00.136Z,6.17
2023-04-04T01:48:27.813Z,11.10
2023-04-04T01:50:58.388Z,2.60
2023-04-04T01:53:29.106Z,8.70
2023-04-04T01:55:56.229Z,5.63
2023-04-04T01:58:27.256Z,2.47
2023-04-04T02:00:54.116Z,4.20
2023-04-04T02:03:21.042Z,3.93
2023-04-04T02:08:15.658Z,8.57
2023-04-04T02:10:42.807Z,2.87
2023-04-04T02:13:09.823Z,2.47
2023-04-04T02:15:39.180Z,2.93
2023-04-04T02:18:06.750Z,4.10
2023-04-04T02:20:33.617Z,2.40
2023-04-04T02:23:00.558Z,4.20
2023-04-04T02:25:28.145Z,7.93
2023-04-04T02:27:55.140Z,4.37
2023-04-04T02:30:21.880Z,3.50
2023-04-04T02:32:50.133Z,4.37
2023-04-04T02:35:18.275Z,3.77
2023-04-04T02:37:47.738Z,4.07
2023-04-04T02:40:14.546Z,3.10
2023-04-04T02:42:45.316Z,5.13
2023-04-04T02:45:14.891Z,4.37
2023-04-04T02:47:43.188Z,4.33
2023-04-04T02:50:11.673Z,3.23
2023-04-04T02:52:40.878Z,8.30
2023-04-04T02:55:08.719Z,2.90
2023-04-04T02:57:35.751Z,2.80
2023-04-04T03:00:05.466Z,3.20
2023-04-04T03:02:34.780Z,6.37
2023-04-04T03:05:02.233Z,7.23
2023-04-04T03:07:29.788Z,4.93
2023-04-04T03:09:56.982Z,3.30
2023-04-04T03:12:24.634Z,5.53
2023-04-04T03:14:51.450Z,5.33
2023-04-04T03:17:18.610Z,5.47
2023-04-04T03:19:46.740Z,3.20
2023-04-04T03:22:17.078Z,2.80
2023-04-04T03:27:15.527Z,8.20
2023-04-04T03:29:42.685Z,3.10
2023-04-04T03:32:09.487Z,3.20
2023-04-04T03:34:36.507Z,3.03
2023-04-04T03:37:03.425Z,3.83
2023-04-04T03:39:30.559Z,9.40
2023-04-04T03:42:01.180Z,3.83
2023-04-04T03:44:31.488Z,5.53
2023-04-04T03:46:58.467Z,4.80
2023-04-04T03:49:25.706Z,4.97
2023-04-04T03:51:52.491Z,3.80
2023-04-04T03:54:19.321Z,2.43
2023-04-04T03:56:46.224Z,5.47
2023-04-04T03:59:13.746Z,4.50
2023-04-04T04:01:43.330Z,3.93
2023-04-04T04:04:10.103Z,4.73
2023-04-04T04:06:37.908Z,5.10
2023-04-04T04:09:05.156Z,3.80
2023-04-04T04:11:32.579Z,7.63
2023-04-04T04:14:01.217Z,4.60
2023-04-04T04:16:28.503Z,4.03
2023-04-04T04:18:55.293Z,2.87
2023-04-04T04:21:22.109Z,6.63
2023-04-04T04:26:15.383Z,6.30
2023-04-04T04:28:42.371Z,4.50
2023-04-04T04:31:11.500Z,5.93
2023-04-04T04:33:38.267Z,4.87
2023-04-04T04:36:07.387Z,12.33
2023-04-04T04:38:34.665Z,6.57
2023-04-04T04:41:02.797Z,5.17
2023-04-04T04:43:30.603Z,6.17
2023-04-04T04:45:57.496Z,4.83
2023-04-04T04:48:25.294Z,9.30
2023-04-04T04:50:55.766Z,5.23
2023-04-04T04:53:22.696Z,6.63
2023-04-04T04:55:51.705Z,10.80
2023-04-04T04:58:24.982Z,6.93
2023-04-04T05:01:00.229Z,12.00
2023-04-04T05:03:28.696Z,13.33
2023-04-04T05:05:55.576Z,17.70
2023-04-04T05:08:22.739Z,14.93
2023-04-04T05:10:51.163Z,13.30
2023-04-04T05:13:18.989Z,6.57
2023-04-04T05:18:14.581Z,5.27
2023-04-04T05:20:41.885Z,5.63
2023-04-04T05:23:09.547Z,3.33
2023-04-04T05:25:36.581Z,4.87
2023-04-04T05:28:04.181Z,4.47
2023-04-04T05:30:31.412Z,3.33
2023-04-04T05:32:58.221Z,5.53
2023-04-04T05:35:26.447Z,11.10
2023-04-04T05:37:53.226Z,3.30
2023-04-04T05:40:20.735Z,6.53
2023-04-04T05:42:50.298Z,4.80
2023-04-04T05:45:17.076Z,5.00
2023-04-04T05:47:44.576Z,6.33
2023-04-04T05:50:11.813Z,4.87
2023-04-04T05:52:43.143Z,5.97
2023-04-04T05:55:10.397Z,9.17
2023-04-04T05:57:40.510Z,6.33
2023-04-04T06:00:10.756Z,5.27
2023-04-04T06:02:38.077Z,7.13
2023-04-04T06:05:06.648Z,6.50
2023-04-04T06:07:34.875Z,9.27
2023-04-04T06:10:01.933Z,5.10
2023-04-04T06:12:28.794Z,5.63
2023-04-04T06:14:55.832Z,4.57
2023-04-04T06:17:22.708Z,8.73
2023-04-04T06:19:50.337Z,6.00
2023-04-04T06:22:18.136Z,4.73
2023-04-04T06:24:44.995Z,4.50
2023-04-04T06:27:15.452Z,4.00
2023-04-04T06:29:43.075Z,4.57
2023-04-04T06:32:14.011Z,4.40
2023-04-04T06:34:40.789Z,11.47
2023-04-04T06:37:07.573Z,5.63
2023-04-04T06:39:34.682Z,6.90
2023-04-04T06:42:01.729Z,9.33
2023-04-04T06:44:31.462Z,5.17
2023-04-04T06:46:58.536Z,4.30
2023-04-04T06:49:25.404Z,3.83
2023-04-04T06:52:01.413Z,5.75
2023-04-04T06:54:28.234Z,3.97
2023-04-04T06:56:56.125Z,5.50
2023-04-04T06:59:23.287Z,9.52
2023-04-04T07:01:50.088Z,6.05
2023-04-04T07:04:20.686Z,6.00
2023-04-04T07:06:47.477Z,7.30
2023-04-04T07:09:25.826Z,5.43
2023-04-04T07:12:01.922Z,6.40
2023-04-04T07:14:28.680Z,5.03
2023-04-04T07:16:55.592Z,9.18
2023-04-04T07:19:28.881Z,6.35
2023-04-04T07:21:56.459Z,5.90
2023-04-04T07:24:23.378Z,5.22
2023-04-04T07:26:52.590Z,3.76
2023-04-04T07:29:19.475Z,4.00
2023-04-04T07:31:46.472Z,4.47
2023-04-04T07:34:13.334Z,3.20
2023-04-04T07:36:40.234Z,10.48
2023-04-04T07:39:07.323Z,5.30
2023-04-04T07:41:34.111Z,7.28
2023-04-04T07:44:03.866Z,4.55
2023-04-04T07:46:30.719Z,8.45
2023-04-04T07:48:57.652Z,4.00
2023-04-04T07:51:29.655Z,5.05
2023-04-04T07:53:57.538Z,3.78
2023-04-04T07:56:24.692Z,5.25
2023-04-04T07:58:51.735Z,5.60
2023-04-04T08:01:18.875Z,7.00
2023-04-04T08:03:46.195Z,5.47
2023-04-04T08:06:13.584Z,6.22
2023-04-04T08:08:41.783Z,4.75
2023-04-04T08:11:08.828Z,8.75
2023-04-04T08:13:35.722Z,4.13
2023-04-04T08:16:02.694Z,4.97
2023-04-04T08:18:29.658Z,5.50
2023-04-04T08:20:57.072Z,5.38
2023-04-04T08:23:24.012Z,5.72
2023-04-04T08:25:51.969Z,4.72
2023-04-04T08:28:18.846Z,5.65
2023-04-04T08:30:45.884Z,4.90
2023-04-04T08:33:12.901Z,5.80
2023-04-04T08:35:39.779Z,4.78
2023-04-04T08:38:08.636Z,4.75
2023-04-04T08:40:35.956Z,6.35
2023-04-04T08:43:08.585Z,6.45
2023-04-04T08:45:36.171Z,3.83
2023-04-04T08:48:05.303Z,4.03
2023-04-04T08:50:32.884Z,4.72
2023-04-04T08:53:01.987Z,5.22
2023-04-04T08:55:28.949Z,4.25
2023-04-04T08:57:56.081Z,5.85
2023-04-04T09:00:24.345Z,5.45
2023-04-04T09:03:34.550Z,3.55
2023-04-04T09:06:02.723Z,4.82
2023-04-04T09:08:31.078Z,4.05
2023-04-04T09:10:58.394Z,5.68
2023-04-04T09:13:25.416Z,7.57
2023-04-04T09:15:59.471Z,5.05
2023-04-04T09:18:26.254Z,5.30
2023-04-04T09:20:53.495Z,5.45
2023-04-04T09:23:21.574Z,9.50
2023-04-04T09:28:21.172Z,5.15
2023-04-04T09:30:49.347Z,4.03
2023-04-04T09:33:18.387Z,5.15
2023-04-04T09:35:49.424Z,4.28
2023-04-04T09:38:17.740Z,4.65
2023-04-04T09:40:45.670Z,6.75
2023-04-04T09:43:13.633Z,8.57
2023-04-04T09:45:46.697Z,8.05
2023-04-04T09:48:32.954Z,5.80
2023-04-04T09:51:00.227Z,5.30
2023-04-04T09:53:28.178Z,5.90
2023-04-04T09:55:56.774Z,6.18
2023-04-04T09:58:28.526Z,6.50
2023-04-04T10:01:04.418Z,7.07
2023-04-04T10:03:31.519Z,8.55
2023-04-04T10:06:06.968Z,8.25
2023-04-04T10:08:35.680Z,5.18
2023-04-04T10:13:41.252Z,4.78
2023-04-04T10:16:09.361Z,4.75
2023-04-04T10:18:37.192Z,4.72
2023-04-04T10:23:37.255Z,4.63
2023-04-04T10:26:04.034Z,6.53
2023-04-04T10:28:31.640Z,4.47
2023-04-04T10:31:10.114Z,7.85
2023-04-04T10:33:50.380Z,9.15
2023-04-04T10:36:22.796Z,6.82
2023-04-04T10:38:50.490Z,7.50
2023-04-04T10:41:20.956Z,6.65
2023-04-04T10:43:50.428Z,6.78
2023-04-04T10:46:21.909Z,4.40
2023-04-04T10:48:50.408Z,4.78
2023-04-04T10:51:17.546Z,6.10
2023-04-04T10:53:45.550Z,4.75
2023-04-04T10:56:13.096Z,5.72
2023-04-04T10:58:42.002Z,4.28
2023-04-04T11:01:09.507Z,4.20
2023-04-04T11:03:50.424Z,6.40
2023-04-04T11:06:20.404Z,4.78
2023-04-04T11:08:50.861Z,4.93
2023-04-04T11:11:22.659Z,3.67
2023-04-04T11:14:02.424Z,4.93
2023-04-04T11:16:46.656Z,5.00
2023-04-04T11:19:15.971Z,6.97
2023-04-04T11:21:47.142Z,5.30
2023-04-04T11:24:15.029Z,4.53
2023-04-04T11:26:43.060Z,7.45
2023-04-04T11:29:09.999Z,5.20
2023-04-04T11:31:45.984Z,6.03
2023-04-04T11:34:14.797Z,4.78
2023-04-04T11:36:45.538Z,6.28
2023-04-04T11:39:20.358Z,4.63
2023-04-04T11:41:49.578Z,5.38
2023-04-04T11:44:17.928Z,6.53
2023-04-04T11:46:51.682Z,4.43
2023-04-04T11:49:26.157Z,7.72
2023-04-04T11:51:53.448Z,4.75
2023-04-04T11:54:20.743Z,5.53
2023-04-04T11:59:23.360Z,5.82
2023-04-04T12:01:54.688Z,7.03
2023-04-04T12:04:23.052Z,4.65
2023-04-04T12:06:52.884Z,6.75
2023-04-04T12:09:20.907Z,5.85
2023-04-04T12:14:26.682Z,4.90
2023-04-04T12:16:55.743Z,6.35
2023-04-04T12:19:26.882Z,4.93
2023-04-04T12:21:57.842Z,5.75
2023-04-04T12:24:24.810Z,5.43
2023-04-04T12:26:53.625Z,5.82
2023-04-04T12:29:22.971Z,5.85
2023-04-04T12:31:52.041Z,7.22
2023-04-04T12:34:21.973Z,6.47
2023-04-04T12:39:16.607Z,5.93
2023-04-04T12:41:50.480Z,5.07
2023-04-04T12:44:30.752Z,6.10
2023-04-04T12:47:08.127Z,5.85
2023-04-04T12:49:44.983Z,6.63
2023-04-04T12:52:30.002Z,5.47
2023-04-04T12:55:08.063Z,6.95
2023-04-04T12:57:36.956Z,4.90
2023-04-04T13:00:06.443Z,7.18
2023-04-04T13:02:36.314Z,6.70
2023-04-04T13:05:08.047Z,5.57
2023-04-04T13:07:43.379Z,7.55
2023-04-04T13:10:15.145Z,4.68
2023-04-04T15:20:28.156Z,3.97
2023-04-04T15:22:55.140Z,3.83
2023-04-04T15:25:22.457Z,5.15
2023-04-04T15:27:51.734Z,5.20
2023-04-04T15:30:23.955Z,6.32
2023-04-04T15:32:54.522Z,6.32
2023-04-04T15:35:21.929Z,4.32
2023-04-04T15:37:51.699Z,4.70
2023-04-04T15:40:20.127Z,6.47
2023-04-04T15:42:47.997Z,6.43
2023-04-04T15:45:18.866Z,4.13
2023-04-04T15:47:46.763Z,6.18
2023-04-04T15:50:14.205Z,3.20
2023-04-04T15:52:43.245Z,4.15
2023-04-04T15:55:17.594Z,3.85
2023-04-04T15:57:45.827Z,3.58
2023-04-04T16:00:14.700Z,3.67
2023-04-04T16:02:42.232Z,5.55
2023-04-04T16:05:09.844Z,4.50
2023-04-04T16:07:37.423Z,5.53
2023-04-04T16:10:09.032Z,3.42
2023-04-04T16:12:35.914Z,3.28
2023-04-04T16:15:12.365Z,5.00
2023-04-04T16:17:39.504Z,5.32
2023-04-04T16:20:07.792Z,5.97
2023-04-04T16:22:34.944Z,4.70
2023-04-04T16:25:12.016Z,7.68
2023-04-04T16:27:38.762Z,6.00
2023-04-04T16:30:06.448Z,6.55
2023-04-04T16:32:34.680Z,5.57
2023-04-04T16:35:01.923Z,4.85
2023-04-04T16:37:28.877Z,5.13
2023-04-04T16:39:56.744Z,3.42
2023-04-04T16:42:25.052Z,5.55
2023-04-04T16:44:51.965Z,7.70
2023-04-04T16:47:18.813Z,7.63
2023-04-04T16:49:47.363Z,6.93
2023-04-04T16:52:15.037Z,6.70
2023-04-04T16:54:45.778Z,9.25
2023-04-04T16:57:15.862Z,6.93
2023-04-04T16:59:42.654Z,6.00
2023-04-04T17:02:09.864Z,9.15
2023-04-04T17:04:44.316Z,5.50
2023-04-04T17:07:11.247Z,5.25
2023-04-04T17:09:38.746Z,5.68
2023-04-04T17:12:08.618Z,6.13
2023-04-04T17:14:35.983Z,5.63
2023-04-04T17:17:03.233Z,7.50
2023-04-04T17:19:30.530Z,4.07
2023-04-04T17:21:58.866Z,6.05
2023-04-04T17:24:27.483Z,8.93
2023-04-04T17:26:58.513Z,6.68
2023-04-04T17:29:27.204Z,5.88
2023-04-04T17:31:55.767Z,8.60
2023-04-04T17:34:23.142Z,4.32
2023-04-04T17:36:51.041Z,7.20
2023-04-04T17:39:18.170Z,6.10
2023-04-04T17:44:16.774Z,6.43
2023-04-04T17:46:47.272Z,5.50
2023-04-04T17:49:19.982Z,6.78
2023-04-04T17:54:16.088Z,5.80
2023-04-04T17:56:47.228Z,9.23
2023-04-04T17:59:15.003Z,5.55
2023-04-04T18:01:42.525Z,10.73
2023-04-04T18:04:10.904Z,6.65
2023-04-04T18:06:40.242Z,8.05
2023-04-04T18:09:09.513Z,6.55
2023-04-04T18:11:37.352Z,6.18
2023-04-04T18:14:04.519Z,6.95
2023-04-04T18:16:38.852Z,6.88
2023-04-04T18:19:10.432Z,9.35
2023-04-04T18:21:38.757Z,5.88
2023-04-04T18:24:08.135Z,7.20
2023-04-04T18:26:34.978Z,6.53
2023-04-04T18:29:02.312Z,8.10
2023-04-04T18:31:29.171Z,7.80
2023-04-04T18:33:56.988Z,6.88
2023-04-04T18:36:24.048Z,12.50
2023-04-04T18:38:50.844Z,5.40
2023-04-04T18:41:17.724Z,8.63
2023-04-04T18:43:47.928Z,5.70
2023-04-04T18:46:14.896Z,7.28
2023-04-04T18:48:42.587Z,8.50
2023-04-04T18:51:09.792Z,9.25
2023-04-04T18:53:36.569Z,9.63
2023-04-04T18:56:04.488Z,9.70
2023-04-04T18:58:34.440Z,11.60
2023-04-04T19:01:04.025Z,10.35
2023-04-04T19:03:38.801Z,14.55
2023-04-04T19:06:06.913Z,12.13
2023-04-04T19:08:38.987Z,8.25
2023-04-04T19:11:06.315Z,9.68
2023-04-04T19:13:33.509Z,11.38
2023-04-04T19:16:00.455Z,11.80
2023-04-04T19:18:27.709Z,12.45
2023-04-04T19:20:54.653Z,13.02
2023-04-04T19:23:21.892Z,11.32
2023-04-04T19:28:15.550Z,7.63
2023-04-04T19:33:18.566Z,12.10
2023-04-04T19:35:54.440Z,9.77
2023-04-04T19:38:33.866Z,12.02
2023-04-04T19:41:02.899Z,7.78
2023-04-04T19:43:31.551Z,14.05
2023-04-04T19:46:05.136Z,8.07
2023-04-04T19:48:42.878Z,9.82
2023-04-04T19:51:40.365Z,11.45
2023-04-04T19:54:18.106Z,9.55
2023-04-04T19:56:46.738Z,11.00
2023-04-04T19:59:50.788Z,16.35
2023-04-04T20:02:33.628Z,9.77
2023-04-04T20:05:22.946Z,11.23
2023-04-04T20:07:50.729Z,9.68
2023-04-04T20:10:37.008Z,9.00
2023-04-04T20:13:06.910Z,9.10
2023-04-04T20:15:50.798Z,12.05
2023-04-04T20:18:23.183Z,11.63
2023-04-04T20:20:50.811Z,12.45
2023-04-04T20:23:21.223Z,11.63
2023-04-04T20:25:47.911Z,13.80
2023-04-04T20:28:44.403Z,13.85
2023-04-04T20:31:20.290Z,11.63
2023-04-04T20:33:47.477Z,13.68
2023-04-04T20:36:39.730Z,12.55
2023-04-04T20:39:45.184Z,10.98
2023-04-04T20:42:26.346Z,10.65
2023-04-04T20:44:54.588Z,13.13
2023-04-04T20:47:39.903Z,11.05
2023-04-04T20:50:19.207Z,11.27
2023-04-04T20:52:50.692Z,11.63
2023-04-04T20:55:21.529Z,13.40
2023-04-04T20:57:50.846Z,10.70
2023-04-04T21:00:29.908Z,14.50
2023-04-04T21:03:01.967Z,10.50
2023-04-04T21:05:31.458Z,14.30
2023-04-04T21:08:00.497Z,10.32
2023-04-04T21:10:27.511Z,14.32
2023-04-04T21:12:58.574Z,11.50
2023-04-04T21:15:38.702Z,14.65
2023-04-04T21:18:11.378Z,13.02
2023-04-04T21:20:47.540Z,11.20
2023-04-04T21:23:41.548Z,11.55
2023-04-04T21:26:22.331Z,15.30
2023-04-04T21:31:17.787Z,14.27
2023-04-04T21:33:46.755Z,15.75
2023-04-04T21:36:26.514Z,16.20
2023-04-04T21:38:55.291Z,13.65
2023-04-04T21:41:33.234Z,14.25
2023-04-04T21:44:05.522Z,15.77
2023-04-04T21:46:34.908Z,16.55
2023-04-04T21:49:02.261Z,11.43
2023-04-04T21:51:29.236Z,15.63
2023-04-04T21:53:56.907Z,13.43
2023-04-04T21:56:27.624Z,12.80
2023-04-04T21:58:55.030Z,14.68
2023-04-04T22:01:22.156Z,17.13
2023-04-04T22:06:16.084Z,12.80
2023-04-04T22:08:43.629Z,13.35
2023-04-04T22:11:19.323Z,13.63
2023-04-04T22:16:17.141Z,12.52
2023-04-04T22:21:16.714Z,9.48
2023-04-04T22:23:44.882Z,9.80
2023-04-04T22:26:20.513Z,11.85
2023-04-04T22:31:15.294Z,10.65
2023-04-04T22:33:42.151Z,13.25
2023-04-04T22:36:10.492Z,16.48
2023-04-04T22:38:39.703Z,11.52
2023-04-04T22:41:06.614Z,10.55
2023-04-04T22:43:34.021Z,13.05
2023-04-04T22:46:00.827Z,13.55
2023-04-04T22:48:30.883Z,14.98
2023-04-04T22:50:59.133Z,14.15
2023-04-04T22:53:29.452Z,18.40
2023-04-04T22:56:00.970Z,15.05
2023-04-04T22:58:27.713Z,14.52
2023-04-04T23:00:54.729Z,14.95
2023-04-04T23:03:21.636Z,14.25
2023-04-04T23:08:16.797Z,16.45
2023-04-04T23:10:43.993Z,14.25
2023-04-04T23:13:10.793Z,17.83
2023-04-04T23:15:38.138Z,13.30
2023-04-04T23:18:05.598Z,15.02
2023-04-04T23:20:39.921Z,15.45
2023-04-04T23:23:10.286Z,13.20
2023-04-04T23:25:37.149Z,14.43
2023-04-04T23:28:04.247Z,16.67
2023-04-04T23:30:33.986Z,16.58
2023-04-04T23:33:01.298Z,17.05
2023-04-04T23:35:28.285Z,14.65
2023-04-04T23:37:55.051Z,17.38
2023-04-04T23:40:21.868Z,15.88
2023-04-04T23:42:51.117Z,17.58
2023-04-04T23:45:18.238Z,16.95
2023-04-04T23:47:45.282Z,16.27
2023-04-04T23:50:12.342Z,20.77
2023-04-04T23:52:40.604Z,20.48
2023-04-04T23:55:08.171Z,15.13
2023-04-04T23:57:35.018Z,18.77
